createdAt,value
2018-10-07T00:00:12.051Z,13.07
2018-10-07T00:00:24.240Z,13.07
2018-10-07T00:00:36.457Z,13.07
2018-10-07T00:00:48.642Z,13.07
2018-10-07T00:01:00.906Z,13.07
2018-10-07T00:01:13.102Z,13.07
2018-10-07T00:01:25.264Z,13.07
2018-10-07T00:01:37.442Z,13.07
2018-10-07T00:01:49.749Z,13.07
2018-10-07T00:02:01.911Z,13.07
2018-10-07T00:02:14.107Z,13.07
2018-10-07T00:02:26.267Z,13.07
2018-10-07T00:02:38.433Z,13.07
2018-10-07T00:02:50.592Z,13.07
2018-10-07T00:03:02.746Z,13.07
2018-10-07T00:03:14.901Z,13.07
2018-10-07T00:03:27.061Z,13.07
2018-10-07T00:03:39.252Z,13.07
2018-10-07T00:03:51.404Z,13.07
2018-10-07T00:04:03.719Z,13.07
2018-10-07T00:04:15.877Z,13.07
2018-10-07T00:04:28.077Z,13.07
2018-10-07T00:04:40.245Z,13.07
2018-10-07T00:04:52.523Z,13.07
2018-10-07T00:05:04.694Z,13.07
2018-10-07T00:05:16.868Z,13.07
2018-10-07T00:05:29.037Z,13.07
2018-10-07T00:05:41.230Z,13.07
2018-10-07T00:05:53.378Z,13.07
2018-10-07T00:06:05.544Z,13.07
2018-10-07T00:06:17.711Z,13.07
2018-10-07T00:06:30.084Z,13.07
2018-10-07T00:06:42.280Z,13.07
2018-10-07T00:06:54.448Z,13.07
2018-10-07T00:07:06.629Z,13.07
2018-10-07T00:07:18.795Z,13.07
2018-10-07T00:07:30.965Z,13.07
2018-10-07T00:07:43.151Z,13.07
2018-10-07T00:07:55.319Z,13.07
2018-10-07T00:08:07.496Z,13.07
2018-10-07T00:08:19.673Z,13.07
2018-10-07T00:08:31.846Z,13.07
2018-10-07T00:08:44.000Z,13.07
2018-10-07T00:08:56.163Z,13.07
2018-10-07T00:09:08.328Z,13.07
2018-10-07T00:09:20.614Z,13.07
2018-10-07T00:09:32.816Z,13.07
2018-10-07T00:09:44.958Z,13.07
2018-10-07T00:09:57.138Z,13.07
2018-10-07T00:10:09.321Z,13.07
2018-10-07T00:10:21.507Z,11.18
2018-10-07T00:10:33.674Z,11.18
2018-10-07T00:10:45.843Z,11.18
2018-10-07T00:10:58.020Z,11.18
2018-10-07T00:11:10.173Z,11.18
2018-10-07T00:11:22.350Z,11.18
2018-10-07T00:11:34.510Z,11.18
2018-10-07T00:11:46.691Z,11.18
2018-10-07T00:11:58.873Z,11.18
2018-10-07T00:12:11.083Z,11.18
2018-10-07T00:12:23.250Z,11.18
2018-10-07T00:12:35.604Z,11.18
2018-10-07T00:12:47.780Z,11.18
2018-10-07T00:13:00.129Z,11.18
2018-10-07T00:13:12.336Z,11.18
2018-10-07T00:13:24.603Z,11.18
2018-10-07T00:13:36.762Z,11.18
2018-10-07T00:13:48.938Z,11.18
2018-10-07T00:14:01.093Z,11.18
2018-10-07T00:14:13.283Z,11.18
2018-10-07T00:14:25.447Z,11.18
2018-10-07T00:14:37.603Z,11.18
2018-10-07T00:14:49.795Z,11.18
2018-10-07T00:15:01.946Z,11.18
2018-10-07T00:15:14.142Z,11.18
2018-10-07T00:15:26.310Z,11.18
2018-10-07T00:15:38.450Z,11.18
2018-10-07T00:15:50.587Z,11.18
2018-10-07T00:16:02.755Z,11.18
2018-10-07T00:16:14.916Z,11.18
2018-10-07T00:16:27.155Z,11.18
2018-10-07T00:16:39.305Z,11.18
2018-10-07T00:16:51.460Z,11.18
2018-10-07T00:17:03.613Z,11.18
2018-10-07T00:17:16.053Z,11.18
2018-10-07T00:17:28.215Z,11.18
2018-10-07T00:17:40.371Z,11.18
2018-10-07T00:17:52.521Z,11.18
2018-10-07T00:18:04.674Z,11.18
2018-10-07T00:18:16.843Z,11.18
2018-10-07T00:18:29.009Z,11.18
2018-10-07T00:18:41.162Z,11.18
2018-10-07T00:18:53.322Z,11.18
2018-10-07T00:19:05.487Z,11.18
2018-10-07T00:19:17.666Z,11.18
2018-10-07T00:19:29.816Z,11.18
2018-10-07T00:19:41.967Z,11.18
2018-10-07T00:19:54.341Z,11.18
2018-10-07T00:20:06.480Z,11.18
2018-10-07T00:20:18.643Z,13.13
2018-10-07T00:20:30.806Z,13.13
2018-10-07T00:20:42.957Z,13.13
2018-10-07T00:20:55.150Z,13.13
2018-10-07T00:21:07.300Z,13.13
2018-10-07T00:21:19.620Z,13.13
2018-10-07T00:21:31.803Z,13.13
2018-10-07T00:21:43.976Z,13.13
2018-10-07T00:21:56.124Z,13.13
2018-10-07T00:22:08.342Z,13.13
2018-10-07T00:22:20.554Z,13.13
2018-10-07T00:22:32.725Z,13.13
2018-10-07T00:22:44.884Z,13.13
2018-10-07T00:22:57.035Z,13.13
2018-10-07T00:23:09.216Z,13.13
2018-10-07T00:23:21.392Z,13.13
2018-10-07T00:23:33.539Z,13.13
2018-10-07T00:23:45.721Z,13.13
2018-10-07T00:23:57.904Z,13.13
2018-10-07T00:24:10.293Z,13.13
2018-10-07T00:24:22.477Z,13.13
2018-10-07T00:24:34.654Z,13.13
2018-10-07T00:24:46.833Z,13.13
2018-10-07T00:24:58.977Z,13.13
2018-10-07T00:25:11.140Z,13.13
2018-10-07T00:25:23.289Z,13.13
2018-10-07T00:25:35.450Z,13.13
2018-10-07T00:25:47.610Z,13.13
2018-10-07T00:25:59.769Z,13.13
2018-10-07T00:26:11.934Z,13.13
2018-10-07T00:26:24.110Z,13.13
2018-10-07T00:26:36.264Z,13.13
2018-10-07T00:26:48.405Z,13.13
2018-10-07T00:27:00.544Z,13.13
2018-10-07T00:27:12.702Z,13.13
2018-10-07T00:27:24.840Z,13.13
2018-10-07T00:27:36.976Z,13.13
2018-10-07T00:27:49.203Z,13.13
2018-10-07T00:28:01.359Z,13.13
2018-10-07T00:28:13.501Z,13.13
2018-10-07T00:28:25.656Z,13.13
2018-10-07T00:28:37.826Z,13.13
2018-10-07T00:28:49.985Z,13.13
2018-10-07T00:29:02.153Z,13.13
2018-10-07T00:29:14.376Z,13.13
2018-10-07T00:29:26.560Z,13.13
2018-10-07T00:29:38.724Z,13.13
2018-10-07T00:29:50.886Z,13.13
2018-10-07T00:30:03.072Z,13.13
2018-10-07T00:30:15.259Z,10.65
2018-10-07T00:30:27.413Z,10.65
2018-10-07T00:30:39.702Z,10.65
2018-10-07T00:30:51.880Z,10.65
2018-10-07T00:31:04.042Z,10.65
2018-10-07T00:31:16.204Z,10.65
2018-10-07T00:31:28.357Z,10.65
2018-10-07T00:31:40.648Z,10.65
2018-10-07T00:31:52.783Z,10.65
2018-10-07T00:32:04.955Z,10.65
2018-10-07T00:32:17.106Z,10.65
2018-10-07T00:32:29.267Z,10.65
2018-10-07T00:32:41.461Z,10.65
2018-10-07T00:32:53.623Z,10.65
2018-10-07T00:33:05.815Z,10.65
2018-10-07T00:33:17.993Z,10.65
2018-10-07T00:33:30.156Z,10.65
2018-10-07T00:33:42.647Z,10.65
2018-10-07T00:33:54.843Z,10.65
2018-10-07T00:34:07.030Z,10.65
2018-10-07T00:34:19.189Z,10.65
2018-10-07T00:34:31.358Z,10.65
2018-10-07T00:34:43.515Z,10.65
2018-10-07T00:34:55.667Z,10.65
2018-10-07T00:35:07.831Z,10.65
2018-10-07T00:35:19.996Z,10.65
2018-10-07T00:35:32.248Z,10.65
2018-10-07T00:35:44.409Z,10.65
2018-10-07T00:35:56.730Z,10.65
2018-10-07T00:36:08.907Z,10.65
2018-10-07T00:36:21.070Z,10.65
2018-10-07T00:36:33.406Z,10.65
2018-10-07T00:36:45.664Z,10.65
2018-10-07T00:36:57.852Z,10.65
2018-10-07T00:37:10.021Z,10.65
2018-10-07T00:37:22.243Z,10.65
2018-10-07T00:37:34.434Z,10.65
2018-10-07T00:37:46.597Z,10.65
2018-10-07T00:37:59.438Z,10.65
2018-10-07T00:38:11.578Z,10.65
2018-10-07T00:38:23.777Z,10.65
2018-10-07T00:38:35.937Z,10.65
2018-10-07T00:38:48.096Z,10.65
2018-10-07T00:39:00.254Z,10.65
2018-10-07T00:39:12.409Z,10.65
2018-10-07T00:39:24.563Z,10.65
2018-10-07T00:39:36.725Z,10.65
2018-10-07T00:39:49.134Z,10.65
2018-10-07T00:40:01.332Z,10.65
2018-10-07T00:40:13.514Z,9.79
2018-10-07T00:40:25.679Z,9.79
2018-10-07T00:40:37.854Z,9.79
2018-10-07T00:40:50.038Z,9.79
2018-10-07T00:41:02.214Z,9.79
2018-10-07T00:41:14.382Z,9.79
2018-10-07T00:41:26.548Z,9.79
2018-10-07T00:41:38.837Z,9.79
2018-10-07T00:41:50.988Z,9.79
2018-10-07T00:42:03.179Z,9.79
2018-10-07T00:42:15.345Z,9.79
2018-10-07T00:42:27.510Z,9.79
2018-10-07T00:42:39.684Z,9.79
2018-10-07T00:42:51.992Z,9.79
2018-10-07T00:43:04.152Z,9.79
2018-10-07T00:43:16.412Z,9.79
2018-10-07T00:43:28.564Z,9.79
2018-10-07T00:43:40.729Z,9.79
2018-10-07T00:43:52.885Z,9.79
2018-10-07T00:44:05.125Z,9.79
2018-10-07T00:44:17.280Z,9.79
2018-10-07T00:44:29.473Z,9.79
2018-10-07T00:44:41.668Z,9.79
2018-10-07T00:44:53.843Z,9.79
2018-10-07T00:45:06.615Z,9.79
2018-10-07T00:45:18.823Z,9.79
2018-10-07T00:45:30.979Z,9.79
2018-10-07T00:45:43.116Z,9.79
2018-10-07T00:45:55.258Z,9.79
2018-10-07T00:46:07.424Z,9.79
2018-10-07T00:46:19.592Z,9.79
2018-10-07T00:46:31.751Z,9.79
2018-10-07T00:46:43.926Z,9.79
2018-10-07T00:46:56.093Z,9.79
2018-10-07T00:47:08.251Z,9.79
2018-10-07T00:47:20.419Z,9.79
2018-10-07T00:47:32.596Z,9.79
2018-10-07T00:47:44.752Z,9.79
2018-10-07T00:47:56.930Z,9.79
2018-10-07T00:48:09.102Z,9.79
2018-10-07T00:48:21.258Z,9.79
2018-10-07T00:48:33.431Z,9.79
2018-10-07T00:48:45.580Z,9.79
2018-10-07T00:48:57.727Z,9.79
2018-10-07T00:49:09.869Z,9.79
2018-10-07T00:49:22.023Z,9.79
2018-10-07T00:49:34.392Z,9.79
2018-10-07T00:49:46.565Z,9.79
2018-10-07T00:49:58.734Z,9.79
2018-10-07T00:50:11.034Z,9.79
2018-10-07T00:50:23.387Z,9.87
2018-10-07T00:50:35.545Z,9.87
2018-10-07T00:50:47.745Z,9.87
2018-10-07T00:50:59.927Z,9.87
2018-10-07T00:51:12.091Z,9.87
2018-10-07T00:51:24.261Z,9.87
2018-10-07T00:51:36.400Z,9.87
2018-10-07T00:51:48.553Z,9.87
2018-10-07T00:52:00.730Z,9.87
2018-10-07T00:52:12.897Z,9.87
2018-10-07T00:52:25.060Z,9.87
2018-10-07T00:52:37.225Z,9.87
2018-10-07T00:52:49.396Z,9.87
2018-10-07T00:53:01.549Z,9.87
2018-10-07T00:53:14.136Z,9.87
2018-10-07T00:53:26.298Z,9.87
2018-10-07T00:53:38.460Z,9.87
2018-10-07T00:53:50.670Z,9.87
2018-10-07T00:54:02.822Z,9.87
2018-10-07T00:54:14.975Z,9.87
2018-10-07T00:54:27.147Z,9.87
2018-10-07T00:54:39.383Z,9.87
2018-10-07T00:54:51.557Z,9.87
2018-10-07T00:55:03.725Z,9.87
2018-10-07T00:55:16.372Z,9.87
2018-10-07T00:55:28.557Z,9.87
2018-10-07T00:55:40.707Z,9.87
2018-10-07T00:55:52.864Z,9.87
2018-10-07T00:56:05.028Z,9.87
2018-10-07T00:56:17.191Z,9.87
2018-10-07T00:56:29.342Z,9.87
2018-10-07T00:56:41.490Z,9.87
2018-10-07T00:56:53.645Z,9.87
2018-10-07T00:57:05.820Z,9.87
2018-10-07T00:57:17.978Z,9.87
2018-10-07T00:57:30.142Z,9.87
2018-10-07T00:57:42.476Z,9.87
2018-10-07T00:57:54.671Z,9.87
2018-10-07T00:58:06.823Z,9.87
2018-10-07T00:58:19.055Z,9.87
2018-10-07T00:58:31.345Z,9.87
2018-10-07T00:58:43.491Z,9.87
2018-10-07T00:58:55.636Z,9.87
2018-10-07T00:59:07.804Z,9.87
2018-10-07T00:59:19.955Z,9.87
2018-10-07T00:59:32.100Z,9.87
2018-10-07T00:59:44.265Z,9.87
2018-10-07T00:59:56.529Z,9.87
2018-10-07T01:00:08.722Z,9.87
2018-10-07T01:00:20.903Z,11.3
2018-10-07T01:00:33.082Z,11.3
2018-10-07T01:00:45.272Z,11.3
2018-10-07T01:00:57.470Z,11.3
2018-10-07T01:01:09.638Z,11.3
2018-10-07T01:01:21.835Z,11.3
2018-10-07T01:01:33.994Z,11.3
2018-10-07T01:01:46.167Z,11.3
2018-10-07T01:01:58.433Z,11.3
2018-10-07T01:02:10.624Z,11.3
2018-10-07T01:02:22.814Z,11.3
2018-10-07T01:02:34.973Z,11.3
2018-10-07T01:02:47.122Z,11.3
2018-10-07T01:02:59.278Z,11.3
2018-10-07T01:03:11.471Z,11.3
2018-10-07T01:03:23.609Z,11.3
2018-10-07T01:03:35.763Z,11.3
2018-10-07T01:03:47.938Z,11.3
2018-10-07T01:04:00.406Z,11.3
2018-10-07T01:04:12.565Z,11.3
2018-10-07T01:04:24.716Z,11.3
2018-10-07T01:04:36.875Z,11.3
2018-10-07T01:04:49.032Z,11.3
2018-10-07T01:05:01.318Z,11.3
2018-10-07T01:05:13.466Z,11.3
2018-10-07T01:05:25.623Z,11.3
2018-10-07T01:05:37.777Z,11.3
2018-10-07T01:05:49.936Z,11.3
2018-10-07T01:06:02.104Z,11.3
2018-10-07T01:06:14.291Z,11.3
2018-10-07T01:06:26.434Z,11.3
2018-10-07T01:06:39.174Z,11.3
2018-10-07T01:06:51.318Z,11.3
2018-10-07T01:07:03.466Z,11.3
2018-10-07T01:07:15.651Z,11.3
2018-10-07T01:07:27.878Z,11.3
2018-10-07T01:07:40.094Z,11.3
2018-10-07T01:07:52.255Z,11.3
2018-10-07T01:08:04.406Z,11.3
2018-10-07T01:08:16.547Z,11.3
2018-10-07T01:08:28.713Z,11.3
2018-10-07T01:08:40.870Z,11.3
2018-10-07T01:08:53.036Z,11.3
2018-10-07T01:09:05.202Z,11.3
2018-10-07T01:09:17.354Z,11.3
2018-10-07T01:09:29.541Z,11.3
2018-10-07T01:09:41.705Z,11.3
2018-10-07T01:09:53.878Z,11.3
2018-10-07T01:10:06.051Z,11.3
2018-10-07T01:10:18.217Z,10.7
2018-10-07T01:10:30.385Z,10.7
2018-10-07T01:10:42.533Z,10.7
2018-10-07T01:10:54.686Z,10.7
2018-10-07T01:11:06.834Z,10.7
2018-10-07T01:11:19.013Z,10.7
2018-10-07T01:11:31.200Z,10.7
2018-10-07T01:11:43.452Z,10.7
2018-10-07T01:11:55.824Z,10.7
2018-10-07T01:12:08.002Z,10.7
2018-10-07T01:12:20.173Z,10.7
2018-10-07T01:12:32.333Z,10.7
2018-10-07T01:12:44.643Z,10.7
2018-10-07T01:12:56.791Z,10.7
2018-10-07T01:13:09.031Z,10.7
2018-10-07T01:13:21.394Z,10.7
2018-10-07T01:13:33.571Z,10.7
2018-10-07T01:13:45.732Z,10.7
2018-10-07T01:13:57.918Z,10.7
2018-10-07T01:14:10.095Z,10.7
2018-10-07T01:14:22.296Z,10.7
2018-10-07T01:14:34.478Z,10.7
2018-10-07T01:14:46.660Z,10.7
2018-10-07T01:14:58.830Z,10.7
2018-10-07T01:15:11.032Z,10.7
2018-10-07T01:15:23.186Z,10.7
2018-10-07T01:15:35.344Z,10.7
2018-10-07T01:15:47.508Z,10.7
2018-10-07T01:15:59.742Z,10.7
2018-10-07T01:16:12.030Z,10.7
2018-10-07T01:16:24.185Z,10.7
2018-10-07T01:16:36.338Z,10.7
2018-10-07T01:16:48.502Z,10.7
2018-10-07T01:17:00.666Z,10.7
2018-10-07T01:17:12.982Z,10.7
2018-10-07T01:17:25.138Z,10.7
2018-10-07T01:17:37.283Z,10.7
2018-10-07T01:17:49.487Z,10.7
2018-10-07T01:18:01.680Z,10.7
2018-10-07T01:18:13.845Z,10.7
2018-10-07T01:18:25.999Z,10.7
2018-10-07T01:18:38.137Z,10.7
2018-10-07T01:18:50.306Z,10.7
2018-10-07T01:19:02.475Z,10.7
2018-10-07T01:19:14.696Z,10.7
2018-10-07T01:19:26.857Z,10.7
2018-10-07T01:19:39.022Z,10.7
2018-10-07T01:19:51.187Z,10.7
2018-10-07T01:20:03.560Z,10.7
2018-10-07T01:20:15.857Z,12.53
2018-10-07T01:20:28.024Z,12.53
2018-10-07T01:20:40.353Z,12.53
2018-10-07T01:20:52.532Z,12.53
2018-10-07T01:21:04.706Z,12.53
2018-10-07T01:21:17.019Z,12.53
2018-10-07T01:21:29.189Z,12.53
2018-10-07T01:21:41.354Z,12.53
2018-10-07T01:21:53.568Z,12.53
2018-10-07T01:22:05.774Z,12.53
2018-10-07T01:22:17.983Z,12.53
2018-10-07T01:22:30.145Z,12.53
2018-10-07T01:22:42.332Z,12.53
2018-10-07T01:22:54.507Z,12.53
2018-10-07T01:23:06.678Z,12.53
2018-10-07T01:23:18.841Z,12.53
2018-10-07T01:23:30.979Z,12.53
2018-10-07T01:23:43.154Z,12.53
2018-10-07T01:23:55.299Z,12.53
2018-10-07T01:24:07.877Z,12.53
2018-10-07T01:24:20.031Z,12.53
2018-10-07T01:24:32.193Z,12.53
2018-10-07T01:24:44.373Z,12.53
2018-10-07T01:24:56.525Z,12.53
2018-10-07T01:25:08.683Z,12.53
2018-10-07T01:25:20.838Z,12.53
2018-10-07T01:25:32.974Z,12.53
2018-10-07T01:25:45.232Z,12.53
2018-10-07T01:25:57.413Z,12.53
2018-10-07T01:26:09.586Z,12.53
2018-10-07T01:26:21.778Z,12.53
2018-10-07T01:26:33.926Z,12.53
2018-10-07T01:26:46.077Z,12.53
2018-10-07T01:26:58.305Z,12.53
2018-10-07T01:27:10.455Z,12.53
2018-10-07T01:27:22.626Z,12.53
2018-10-07T01:27:34.784Z,12.53
2018-10-07T01:27:46.965Z,12.53
2018-10-07T01:27:59.198Z,12.53
2018-10-07T01:28:11.383Z,12.53
2018-10-07T01:28:23.560Z,12.53
2018-10-07T01:28:35.722Z,12.53
2018-10-07T01:28:47.875Z,12.53
2018-10-07T01:29:00.048Z,12.53
2018-10-07T01:29:12.343Z,12.53
2018-10-07T01:29:24.523Z,12.53
2018-10-07T01:29:36.708Z,12.53
2018-10-07T01:29:48.884Z,12.53
2018-10-07T01:30:01.078Z,12.53
2018-10-07T01:30:13.270Z,12.53
2018-10-07T01:30:25.439Z,12.05
2018-10-07T01:30:37.667Z,12.05
2018-10-07T01:30:49.835Z,12.05
2018-10-07T01:31:01.991Z,12.05
2018-10-07T01:31:14.228Z,12.05
2018-10-07T01:31:26.395Z,12.05
2018-10-07T01:31:38.581Z,12.05
2018-10-07T01:31:50.741Z,12.05
2018-10-07T01:32:02.886Z,12.05
2018-10-07T01:32:15.209Z,12.05
2018-10-07T01:32:27.351Z,12.05
2018-10-07T01:32:39.511Z,12.05
2018-10-07T01:32:51.685Z,12.05
2018-10-07T01:33:03.859Z,12.05
2018-10-07T01:33:16.018Z,12.05
2018-10-07T01:33:28.181Z,12.05
2018-10-07T01:33:40.341Z,12.05
2018-10-07T01:33:52.506Z,12.05
2018-10-07T01:34:04.662Z,12.05
2018-10-07T01:34:16.839Z,12.05
2018-10-07T01:34:28.991Z,12.05
2018-10-07T01:34:41.158Z,12.05
2018-10-07T01:34:53.309Z,12.05
2018-10-07T01:35:05.475Z,12.05
2018-10-07T01:35:17.661Z,12.05
2018-10-07T01:35:29.839Z,12.05
2018-10-07T01:35:42.508Z,12.05
2018-10-07T01:35:54.898Z,12.05
2018-10-07T01:36:07.073Z,12.05
2018-10-07T01:36:19.241Z,12.05
2018-10-07T01:36:31.383Z,12.05
2018-10-07T01:36:43.601Z,12.05
2018-10-07T01:36:55.761Z,12.05
2018-10-07T01:37:07.908Z,12.05
2018-10-07T01:37:20.196Z,12.05
2018-10-07T01:37:32.391Z,12.05
2018-10-07T01:37:44.558Z,12.05
2018-10-07T01:37:56.859Z,12.05
2018-10-07T01:38:09.316Z,12.05
2018-10-07T01:38:21.619Z,12.05
2018-10-07T01:38:33.847Z,12.05
2018-10-07T01:38:46.014Z,12.05
2018-10-07T01:38:58.155Z,12.05
2018-10-07T01:39:10.318Z,12.05
2018-10-07T01:39:22.482Z,12.05
2018-10-07T01:39:34.624Z,12.05
2018-10-07T01:39:46.923Z,12.05
2018-10-07T01:39:59.102Z,12.05
2018-10-07T01:40:11.263Z,12.05
2018-10-07T01:40:23.436Z,16.27
2018-10-07T01:40:35.616Z,16.27
2018-10-07T01:40:48.173Z,16.27
2018-10-07T01:41:00.315Z,16.27
2018-10-07T01:41:12.479Z,16.27
2018-10-07T01:41:24.632Z,16.27
2018-10-07T01:41:36.786Z,16.27
2018-10-07T01:41:48.964Z,16.27
2018-10-07T01:42:01.149Z,16.27
2018-10-07T01:42:13.306Z,16.27
2018-10-07T01:42:25.478Z,16.27
2018-10-07T01:42:37.646Z,16.27
2018-10-07T01:42:49.797Z,16.27
2018-10-07T01:43:01.960Z,16.27
2018-10-07T01:43:14.154Z,16.27
2018-10-07T01:43:26.326Z,16.27
2018-10-07T01:43:38.497Z,16.27
2018-10-07T01:43:50.686Z,16.27
2018-10-07T01:44:03.379Z,16.27
2018-10-07T01:44:15.633Z,16.27
2018-10-07T01:44:27.770Z,16.27
2018-10-07T01:44:39.917Z,16.27
2018-10-07T01:44:52.076Z,16.27
2018-10-07T01:45:04.377Z,16.27
2018-10-07T01:45:16.621Z,16.27
2018-10-07T01:45:28.948Z,16.27
2018-10-07T01:45:41.110Z,16.27
2018-10-07T01:45:53.323Z,16.27
2018-10-07T01:46:05.461Z,16.27
2018-10-07T01:46:17.613Z,16.27
2018-10-07T01:46:29.769Z,16.27
2018-10-07T01:46:41.936Z,16.27
2018-10-07T01:46:54.085Z,16.27
2018-10-07T01:47:06.248Z,16.27
2018-10-07T01:47:18.404Z,16.27
2018-10-07T01:47:30.569Z,16.27
2018-10-07T01:47:42.712Z,16.27
2018-10-07T01:47:54.861Z,16.27
2018-10-07T01:48:07.020Z,16.27
2018-10-07T01:48:19.158Z,16.27
2018-10-07T01:48:31.324Z,16.27
2018-10-07T01:48:43.501Z,16.27
2018-10-07T01:48:55.648Z,16.27
2018-10-07T01:49:07.824Z,16.27
2018-10-07T01:49:20.034Z,16.27
2018-10-07T01:49:32.641Z,16.27
2018-10-07T01:49:44.800Z,16.27
2018-10-07T01:49:56.982Z,16.27
2018-10-07T01:50:09.299Z,16.27
2018-10-07T01:50:21.592Z,15.52
2018-10-07T01:50:33.803Z,15.52
2018-10-07T01:50:46.028Z,15.52
2018-10-07T01:50:58.187Z,15.52
2018-10-07T01:51:10.347Z,15.52
2018-10-07T01:51:22.499Z,15.52
2018-10-07T01:51:34.672Z,15.52
2018-10-07T01:51:46.836Z,15.52
2018-10-07T01:51:59.007Z,15.52
2018-10-07T01:52:11.201Z,15.52
2018-10-07T01:52:23.388Z,15.52
2018-10-07T01:52:35.534Z,15.52
2018-10-07T01:52:47.700Z,15.52
2018-10-07T01:52:59.880Z,15.52
2018-10-07T01:53:12.137Z,15.52
2018-10-07T01:53:24.301Z,15.52
2018-10-07T01:53:36.532Z,15.52
2018-10-07T01:53:48.677Z,15.52
2018-10-07T01:54:00.820Z,15.52
2018-10-07T01:54:12.980Z,15.52
2018-10-07T01:54:25.121Z,15.52
2018-10-07T01:54:37.291Z,15.52
2018-10-07T01:54:49.486Z,15.52
2018-10-07T01:55:01.706Z,15.52
2018-10-07T01:55:13.892Z,15.52
2018-10-07T01:55:26.152Z,15.52
2018-10-07T01:55:38.343Z,15.52
2018-10-07T01:55:50.493Z,15.52
2018-10-07T01:56:02.654Z,15.52
2018-10-07T01:56:14.821Z,15.52
2018-10-07T01:56:27.056Z,15.52
2018-10-07T01:56:39.236Z,15.52
2018-10-07T01:56:51.385Z,15.52
2018-10-07T01:57:03.560Z,15.52
2018-10-07T01:57:15.783Z,15.52
2018-10-07T01:57:27.940Z,15.52
2018-10-07T01:57:40.622Z,15.52
2018-10-07T01:57:52.826Z,15.52
2018-10-07T01:58:04.981Z,15.52
2018-10-07T01:58:17.134Z,15.52
2018-10-07T01:58:29.293Z,15.52
2018-10-07T01:58:41.455Z,15.52
2018-10-07T01:58:53.652Z,15.52
2018-10-07T01:59:05.925Z,15.52
2018-10-07T01:59:18.577Z,15.52
2018-10-07T01:59:31.991Z,15.52
2018-10-07T01:59:44.324Z,15.52
2018-10-07T01:59:56.607Z,15.52
2018-10-07T02:00:08.802Z,15.52
2018-10-07T02:00:20.986Z,9.15
2018-10-07T02:00:33.178Z,9.15
2018-10-07T02:00:45.406Z,9.15
2018-10-07T02:00:57.637Z,9.15
2018-10-07T02:01:09.885Z,9.15
2018-10-07T02:01:22.127Z,9.15
2018-10-07T02:01:34.360Z,9.15
2018-10-07T02:01:46.614Z,9.15
2018-10-07T02:01:58.951Z,9.15
2018-10-07T02:02:11.194Z,9.15
2018-10-07T02:02:23.352Z,9.15
2018-10-07T02:02:35.511Z,9.15
2018-10-07T02:02:47.688Z,9.15
2018-10-07T02:02:59.859Z,9.15
2018-10-07T02:03:12.020Z,9.15
2018-10-07T02:03:24.174Z,9.15
2018-10-07T02:03:36.334Z,9.15
2018-10-07T02:03:48.499Z,9.15
2018-10-07T02:04:00.824Z,9.15
2018-10-07T02:04:13.009Z,9.15
2018-10-07T02:04:25.227Z,9.15
2018-10-07T02:04:37.388Z,9.15
2018-10-07T02:04:49.688Z,9.15
2018-10-07T02:05:02.540Z,9.15
2018-10-07T02:05:16.131Z,9.15
2018-10-07T02:05:28.324Z,9.15
2018-10-07T02:05:40.499Z,9.15
2018-10-07T02:05:52.657Z,9.15
2018-10-07T02:06:04.805Z,9.15
2018-10-07T02:06:16.984Z,9.15
2018-10-07T02:06:29.171Z,9.15
2018-10-07T02:06:41.645Z,9.15
2018-10-07T02:06:53.818Z,9.15
2018-10-07T02:07:06.065Z,9.15
2018-10-07T02:07:18.234Z,9.15
2018-10-07T02:07:30.396Z,9.15
2018-10-07T02:07:42.554Z,9.15
2018-10-07T02:07:54.720Z,9.15
2018-10-07T02:08:06.908Z,9.15
2018-10-07T02:08:19.082Z,9.15
2018-10-07T02:08:31.265Z,9.15
2018-10-07T02:08:43.415Z,9.15
2018-10-07T02:08:55.581Z,9.15
2018-10-07T02:09:07.784Z,9.15
2018-10-07T02:09:20.024Z,9.15
2018-10-07T02:09:32.198Z,9.15
2018-10-07T02:09:44.416Z,9.15
2018-10-07T02:09:56.565Z,9.15
2018-10-07T02:10:08.774Z,9.15
2018-10-07T02:10:20.930Z,10.48
2018-10-07T02:10:33.087Z,10.48
2018-10-07T02:10:45.253Z,10.48
2018-10-07T02:10:57.417Z,10.48
2018-10-07T02:11:09.639Z,10.48
2018-10-07T02:11:21.831Z,10.48
2018-10-07T02:11:34.011Z,10.48
2018-10-07T02:11:46.203Z,10.48
2018-10-07T02:11:58.360Z,10.48
2018-10-07T02:12:10.548Z,10.48
2018-10-07T02:12:22.731Z,10.48
2018-10-07T02:12:34.915Z,10.48
2018-10-07T02:12:47.267Z,10.48
2018-10-07T02:12:59.464Z,10.48
2018-10-07T02:13:11.664Z,10.48
2018-10-07T02:13:24.035Z,10.48
2018-10-07T02:13:36.203Z,10.48
2018-10-07T02:13:48.759Z,10.48
2018-10-07T02:14:01.825Z,10.48
2018-10-07T02:14:14.548Z,10.48
2018-10-07T02:14:26.720Z,10.48
2018-10-07T02:14:38.895Z,10.48
2018-10-07T02:14:51.068Z,10.48
2018-10-07T02:15:03.260Z,10.48
2018-10-07T02:15:15.475Z,10.48
2018-10-07T02:15:27.626Z,10.48
2018-10-07T02:15:39.784Z,10.48
2018-10-07T02:15:51.945Z,10.48
2018-10-07T02:16:04.091Z,10.48
2018-10-07T02:16:16.252Z,10.48
2018-10-07T02:16:28.412Z,10.48
2018-10-07T02:16:40.553Z,10.48
2018-10-07T02:16:52.725Z,10.48
2018-10-07T02:17:04.923Z,10.48
2018-10-07T02:17:17.872Z,10.48
2018-10-07T02:17:30.043Z,10.48
2018-10-07T02:17:42.259Z,10.48
2018-10-07T02:17:54.402Z,10.48
2018-10-07T02:18:06.567Z,10.48
2018-10-07T02:18:18.740Z,10.48
2018-10-07T02:18:30.943Z,10.48
2018-10-07T02:18:43.099Z,10.48
2018-10-07T02:18:55.263Z,10.48
2018-10-07T02:19:07.438Z,10.48
2018-10-07T02:19:19.603Z,10.48
2018-10-07T02:19:31.749Z,10.48
2018-10-07T02:19:43.934Z,10.48
2018-10-07T02:19:56.292Z,10.48
2018-10-07T02:20:08.459Z,10.48
2018-10-07T02:20:20.615Z,11.78
2018-10-07T02:20:32.766Z,11.78
2018-10-07T02:20:44.914Z,11.78
2018-10-07T02:20:57.092Z,11.78
2018-10-07T02:21:09.459Z,11.78
2018-10-07T02:21:21.937Z,11.78
2018-10-07T02:21:34.112Z,11.78
2018-10-07T02:21:46.273Z,11.78
2018-10-07T02:21:58.445Z,11.78
2018-10-07T02:22:10.611Z,11.78
2018-10-07T02:22:22.770Z,11.78
2018-10-07T02:22:34.945Z,11.78
2018-10-07T02:22:47.109Z,11.78
2018-10-07T02:22:59.269Z,11.78
2018-10-07T02:23:11.414Z,11.78
2018-10-07T02:23:23.591Z,11.78
2018-10-07T02:23:35.781Z,11.78
2018-10-07T02:23:47.976Z,11.78
2018-10-07T02:24:00.150Z,11.78
2018-10-07T02:24:12.534Z,11.78
2018-10-07T02:24:24.741Z,11.78
2018-10-07T02:24:36.909Z,11.78
2018-10-07T02:24:49.083Z,11.78
2018-10-07T02:25:01.268Z,11.78
2018-10-07T02:25:13.425Z,11.78
2018-10-07T02:25:25.589Z,11.78
2018-10-07T02:25:37.744Z,11.78
2018-10-07T02:25:49.901Z,11.78
2018-10-07T02:26:02.065Z,11.78
2018-10-07T02:26:14.213Z,11.78
2018-10-07T02:26:26.641Z,11.78
2018-10-07T02:26:38.791Z,11.78
2018-10-07T02:26:51.041Z,11.78
2018-10-07T02:27:03.212Z,11.78
2018-10-07T02:27:15.421Z,11.78
2018-10-07T02:27:27.570Z,11.78
2018-10-07T02:27:39.729Z,11.78
2018-10-07T02:27:51.872Z,11.78
2018-10-07T02:28:04.043Z,11.78
2018-10-07T02:28:16.204Z,11.78
2018-10-07T02:28:28.366Z,11.78
2018-10-07T02:28:40.516Z,11.78
2018-10-07T02:28:52.676Z,11.78
2018-10-07T02:29:04.830Z,11.78
2018-10-07T02:29:16.989Z,11.78
2018-10-07T02:29:29.149Z,11.78
2018-10-07T02:29:41.291Z,11.78
2018-10-07T02:29:53.436Z,11.78
2018-10-07T02:30:05.621Z,11.78
2018-10-07T02:30:17.813Z,11.78
2018-10-07T02:30:30.167Z,12.87
2018-10-07T02:30:42.416Z,12.87
2018-10-07T02:30:54.577Z,12.87
2018-10-07T02:31:06.769Z,12.87
2018-10-07T02:31:19.107Z,12.87
2018-10-07T02:31:31.293Z,12.87
2018-10-07T02:31:43.459Z,12.87
2018-10-07T02:31:55.682Z,12.87
2018-10-07T02:32:07.863Z,12.87
2018-10-07T02:32:20.050Z,12.87
2018-10-07T02:32:32.244Z,12.87
2018-10-07T02:32:44.493Z,12.87
2018-10-07T02:32:56.683Z,12.87
2018-10-07T02:33:08.869Z,12.87
2018-10-07T02:33:21.045Z,12.87
2018-10-07T02:33:33.289Z,12.87
2018-10-07T02:33:45.464Z,12.87
2018-10-07T02:33:57.654Z,12.87
2018-10-07T02:34:09.813Z,12.87
2018-10-07T02:34:21.985Z,12.87
2018-10-07T02:34:34.155Z,12.87
2018-10-07T02:34:46.328Z,12.87
2018-10-07T02:34:58.569Z,12.87
2018-10-07T02:35:10.747Z,12.87
2018-10-07T02:35:23.057Z,12.87
2018-10-07T02:35:35.417Z,12.87
2018-10-07T02:35:47.575Z,12.87
2018-10-07T02:36:00.011Z,12.87
2018-10-07T02:36:12.204Z,12.87
2018-10-07T02:36:24.408Z,12.87
2018-10-07T02:36:36.714Z,12.87
2018-10-07T02:36:48.957Z,12.87
2018-10-07T02:37:01.106Z,12.87
2018-10-07T02:37:13.279Z,12.87
2018-10-07T02:37:25.452Z,12.87
2018-10-07T02:37:37.629Z,12.87
2018-10-07T02:37:49.775Z,12.87
2018-10-07T02:38:02.001Z,12.87
2018-10-07T02:38:14.213Z,12.87
2018-10-07T02:38:26.717Z,12.87
2018-10-07T02:38:38.884Z,12.87
2018-10-07T02:38:51.044Z,12.87